Time;durP1;ratioP1;P1;durP2;ratioP2;P2;SDS_P1;SDS_P2;PMS_P1;PMS_P2;Temp;Humidity;BMP_temperature;BMP_pressure;BME280_temperature;BME280_humidity;BME280_pressure;Samples;Min_cycle;Max_cycle;Signal;HPM_P1;HPM_P2
2022/03/22 00:01:35;;;;;;;20.13;14.43;;;5.40;96.20;;;;;;5044833;28;20238;-70
2022/03/22 00:04:04;;;;;;;16.60;13.13;;;5.30;96.00;;;;;;5043117;28;20907;-71
2022/03/22 00:06:32;;;;;;;18.30;13.90;;;5.30;96.00;;;;;;5042386;28;20201;-70
2022/03/22 00:09:00;;;;;;;17.70;13.55;;;5.30;96.20;;;;;;5042431;28;20201;-71
2022/03/22 00:11:28;;;;;;;15.90;13.27;;;5.30;96.20;;;;;;5040730;28;20221;-71
2022/03/22 00:13:57;;;;;;;15.63;12.63;;;5.30;96.30;;;;;;5040860;28;20267;-71
2022/03/22 00:16:25;;;;;;;17.95;12.68;;;5.30;96.20;;;;;;5041232;28;20255;-68
2022/03/22 00:19:13;;;;;;;14.73;12.25;;;5.30;96.20;;;;;;5040581;28;20198;-68
2022/03/22 00:21:40;;;;;;;17.40;13.32;;;5.20;96.40;;;;;;5040606;28;20237;-70
2022/03/22 00:24:08;;;;;;;15.40;12.30;;;5.20;96.30;;;;;;5040271;28;20218;-70
2022/03/22 00:26:36;;;;;;;15.90;11.52;;;5.30;96.50;;;;;;5040781;28;20236;-71
2022/03/22 00:29:05;;;;;;;20.27;13.52;;;5.20;96.50;;;;;;5040931;28;20230;-70
2022/03/22 00:31:33;;;;;;;18.13;13.65;;;5.20;96.50;;;;;;5040135;28;20258;-70
2022/03/22 00:34:01;;;;;;;16.05;12.75;;;5.20;96.50;;;;;;5039512;28;20348;-71
2022/03/22 00:36:31;;;;;;;17.42;13.65;;;5.20;96.50;;;;;;5040524;28;20230;-70
2022/03/22 00:38:59;;;;;;;18.83;12.63;;;5.20;96.40;;;;;;5040664;28;20216;-71
2022/03/22 00:41:26;;;;;;;17.05;12.95;;;5.10;96.80;;;;;;5040124;28;20218;-71
2022/03/22 00:43:54;;;;;;;17.85;13.55;;;5.10;97.10;;;;;;5039380;28;20221;-70
2022/03/22 00:46:23;;;;;;;14.73;12.90;;;5.20;97.00;;;;;;5040107;28;20201;-70
2022/03/22 00:48:51;;;;;;;15.82;11.55;;;5.20;96.90;;;;;;5039626;28;20225;-72
2022/03/22 00:51:20;;;;;;;13.45;11.25;;;5.10;96.80;;;;;;5040623;28;20225;-71
2022/03/22 00:53:48;;;;;;;16.65;12.10;;;5.10;96.80;;;;;;5039720;28;20204;-71
2022/03/22 00:56:18;;;;;;;17.45;12.25;;;5.10;96.70;;;;;;5040062;28;20205;-71
2022/03/22 00:58:45;;;;;;;17.08;11.70;;;5.10;96.70;;;;;;5039964;28;20197;-71
2022/03/22 01:01:13;;;;;;;15.68;12.00;;;5.10;96.60;;;;;;5038815;28;20742;-70
2022/03/22 01:03:43;;;;;;;15.70;11.20;;;5.10;96.50;;;;;;5039214;28;20308;-70
2022/03/22 01:06:11;;;;;;;14.90;12.00;;;5.10;96.40;;;;;;5038258;28;20212;-70
2022/03/22 01:08:38;;;;;;;14.20;11.68;;;5.00;96.40;;;;;;5039081;28;20197;-69
2022/03/22 01:11:06;;;;;;;14.18;12.32;;;5.00;96.50;;;;;;5039456;28;20233;-70
2022/03/22 01:13:34;;;;;;;17.20;13.23;;;5.00;96.50;;;;;;5039273;28;20204;-70
2022/03/22 01:16:02;;;;;;;12.63;11.25;;;5.00;96.60;;;;;;5039476;28;20216;-70
2022/03/22 01:18:29;;;;;;;14.55;11.55;;;5.00;96.60;;;;;;5040744;28;20290;-68
2022/03/22 01:20:59;;;;;;;17.45;12.63;;;5.00;96.60;;;;;;5039268;28;20222;-70
2022/03/22 01:23:27;;;;;;;14.38;11.43;;;5.00;96.50;;;;;;5039208;28;20248;-70
2022/03/22 01:25:55;;;;;;;17.02;12.68;;;5.00;96.60;;;;;;5039177;28;20202;-70
2022/03/22 01:28:23;;;;;;;14.80;11.02;;;5.00;96.70;;;;;;5039393;28;20228;-70
2022/03/22 01:30:51;;;;;;;17.10;12.50;;;4.90;96.60;;;;;;5038970;28;20232;-69
2022/03/22 01:33:19;;;;;;;15.38;11.95;;;4.90;96.80;;;;;;5039298;28;20200;-65
2022/03/22 01:35:47;;;;;;;18.52;12.70;;;4.90;97.00;;;;;;5039179;28;20210;-70
2022/03/22 01:38:16;;;;;;;14.38;11.63;;;4.90;97.10;;;;;;5039174;28;20281;-69
2022/03/22 01:40:44;;;;;;;13.55;11.20;;;4.90;97.20;;;;;;5038910;28;20268;-69
2022/03/22 01:43:12;;;;;;;16.38;11.80;;;4.90;97.20;;;;;;5038013;28;20219;-71
2022/03/22 01:45:40;;;;;;;16.50;12.43;;;4.90;97.20;;;;;;5037970;28;20193;-70
2022/03/22 01:48:08;;;;;;;16.77;11.70;;;4.80;97.50;;;;;;5038401;28;20212;-69
2022/03/22 01:50:37;;;;;;;16.35;11.70;;;4.80;97.40;;;;;;5021588;28;20222;-70
2022/03/22 01:53:09;;;;;;;14.30;12.48;;;4.80;97.40;;;;;;5025954;28;20240;-70
2022/03/22 01:55:39;;;;;;;12.80;10.10;;;4.80;97.30;;;;;;5034874;28;20214;-71
2022/03/22 01:58:07;;;;;;;17.80;11.98;;;4.80;97.20;;;;;;5038777;28;20449;-70
2022/03/22 02:00:35;;;;;;;14.48;11.90;;;4.80;97.20;;;;;;5038377;28;20342;-70
2022/03/22 02:05:55;;;;;;;16.63;12.50;;;4.80;97.10;;;;;;5038304;28;20198;-70
2022/03/22 02:08:29;;;;;;;14.00;10.85;;;4.80;97.10;;;;;;5038699;28;20197;-72
2022/03/22 02:11:00;;;;;;;17.48;12.45;;;4.70;97.20;;;;;;5038100;28;20442;-70
2022/03/22 02:13:31;;;;;;;14.63;11.50;;;4.70;97.10;;;;;;5037824;28;20216;-69
2022/03/22 02:16:01;;;;;;;14.45;11.93;;;4.70;97.30;;;;;;5038337;28;20763;-68
2022/03/22 02:18:30;;;;;;;13.25;11.20;;;4.70;97.40;;;;;;5038482;28;20301;-68
2022/03/22 02:21:00;;;;;;;13.77;11.35;;;4.70;97.30;;;;;;5037931;28;20773;-69
2022/03/22 02:23:48;;;;;;;15.70;12.38;;;4.70;97.20;;;;;;5038103;28;20227;-68
2022/03/22 02:26:16;;;;;;;18.05;11.68;;;4.70;97.20;;;;;;5044832;28;20212;-67
2022/03/22 02:28:44;;;;;;;17.40;12.18;;;4.60;97.10;;;;;;5048680;28;20772;-67
2022/03/22 02:31:13;;;;;;;17.70;13.20;;;4.60;97.30;;;;;;5038702;28;20225;-68
2022/03/22 02:33:42;;;;;;;18.25;12.65;;;4.60;97.40;;;;;;5038356;28;20198;-69
2022/03/22 02:36:10;;;;;;;15.95;12.18;;;4.60;97.50;;;;;;5037650;28;20209;-69
2022/03/22 02:38:40;;;;;;;17.40;12.63;;;4.60;97.30;;;;;;5031475;28;20293;-69
2022/03/22 02:41:08;;;;;;;13.60;12.00;;;4.60;97.30;;;;;;5019309;28;20222;-69
2022/03/22 02:43:36;;;;;;;15.50;11.10;;;4.60;97.30;;;;;;5019412;28;20233;-71
2022/03/22 02:46:04;;;;;;;16.15;12.65;;;4.60;97.20;;;;;;5019686;28;20202;-70
2022/03/22 02:48:34;;;;;;;14.25;11.93;;;4.50;97.20;;;;;;5018901;28;20566;-70
2022/03/22 02:51:02;;;;;;;17.30;13.30;;;4.50;97.20;;;;;;5018117;28;20312;-69
2022/03/22 02:53:30;;;;;;;18.33;12.98;;;4.50;97.40;;;;;;5017969;28;20320;-67
2022/03/22 02:55:59;;;;;;;16.63;12.93;;;4.50;97.60;;;;;;5018505;28;20202;-68
2022/03/22 02:58:27;;;;;;;19.13;12.35;;;4.50;97.60;;;;;;5022325;28;20396;-68
2022/03/22 03:00:55;;;;;;;16.95;12.55;;;4.50;97.50;;;;;;5021140;28;20233;-66
2022/03/22 03:03:23;;;;;;;15.75;12.23;;;4.50;97.60;;;;;;5022185;28;20249;-66
2022/03/22 03:05:50;;;;;;;16.90;13.50;;;4.50;97.70;;;;;;5021808;28;20870;-67
2022/03/22 03:08:19;;;;;;;13.48;11.77;;;4.40;97.50;;;;;;5021223;28;20204;-68
2022/03/22 03:10:47;;;;;;;15.00;11.93;;;4.40;97.40;;;;;;5021714;28;20772;-67
2022/03/22 03:13:16;;;;;;;14.95;11.57;;;4.40;97.50;;;;;;5021222;28;20202;-66
2022/03/22 03:15:45;;;;;;;18.60;13.27;;;4.40;97.50;;;;;;5021320;28;20202;-67
2022/03/22 03:18:13;;;;;;;13.60;11.68;;;4.40;97.50;;;;;;5021615;28;20202;-69
2022/03/22 03:20:41;;;;;;;18.25;14.07;;;4.40;97.60;;;;;;5021443;28;20313;-67
2022/03/22 03:23:09;;;;;;;20.42;13.38;;;4.40;97.90;;;;;;5021573;28;20202;-68
2022/03/22 03:25:36;;;;;;;15.98;12.07;;;4.30;98.50;;;;;;5021496;28;20222;-67
2022/03/22 03:28:05;;;;;;;17.88;12.30;;;4.30;98.50;;;;;;5021184;28;20201;-68
2022/03/22 03:30:34;;;;;;;16.35;12.32;;;4.30;98.40;;;;;;5021302;28;21037;-69
2022/03/22 03:33:03;;;;;;;14.90;12.23;;;4.30;98.50;;;;;;5021450;28;20792;-68
2022/03/22 03:35:31;;;;;;;17.58;12.23;;;4.30;98.20;;;;;;5021183;28;20186;-69
2022/03/22 03:37:59;;;;;;;16.85;13.05;;;4.30;98.20;;;;;;5022307;28;20229;-68
2022/03/22 03:41:53;;;;;;;17.73;13.60;;;4.30;98.20;;;;;;5023975;28;20215;-68
2022/03/22 03:43:15;;;;;;;22.27;13.60;;;4.30;98.40;;;;;;5028914;28;20202;-68
2022/03/22 03:48:29;;;;;;;18.10;12.45;;;4.20;98.60;;;;;;5030008;28;20206;-67
2022/03/22 03:50:57;;;;;;;20.02;12.80;;;4.20;98.70;;;;;;5029811;28;20313;-67
2022/03/22 03:53:25;;;;;;;17.23;13.52;;;4.20;98.60;;;;;;5029201;28;20271;-67
2022/03/22 03:55:53;;;;;;;17.15;13.05;;;4.10;98.70;;;;;;5027525;28;20278;-67
2022/03/22 03:58:20;;;;;;;16.67;12.73;;;4.10;98.80;;;;;;5022248;28;20202;-67
2022/03/22 04:00:50;;;;;;;16.45;12.55;;;4.10;98.80;;;;;;5022011;28;20256;-67
2022/03/22 04:03:18;;;;;;;18.48;13.15;;;4.10;99.10;;;;;;5021126;28;20367;-68
2022/03/22 04:05:45;;;;;;;16.38;12.95;;;4.10;98.90;;;;;;5020874;28;20317;-67
2022/03/22 04:08:13;;;;;;;17.33;12.02;;;4.10;99.00;;;;;;5020213;28;20203;-67
2022/03/22 04:10:42;;;;;;;14.88;11.32;;;4.10;99.00;;;;;;5020994;28;20222;-68
2022/03/22 04:13:09;;;;;;;17.77;12.43;;;4.10;99.00;;;;;;5020133;28;20195;-67
2022/03/22 04:15:37;;;;;;;14.50;11.80;;;4.10;99.00;;;;;;5020597;28;20198;-68
2022/03/22 04:18:07;;;;;;;25.02;15.25;;;4.10;99.10;;;;;;5020216;28;20206;-68
2022/03/22 04:20:35;;;;;;;19.48;12.75;;;4.10;99.10;;;;;;5020735;28;20249;-67
2022/03/22 04:23:03;;;;;;;18.73;13.68;;;4.00;99.10;;;;;;5020651;28;20209;-67
2022/03/22 04:25:31;;;;;;;22.50;14.10;;;4.00;99.10;;;;;;5020492;28;20288;-67
2022/03/22 04:33:33;;;;;;;16.08;12.00;;;4.10;99.10;;;;;;5020463;28;20217;-67
2022/03/22 04:36:01;;;;;;;15.68;12.10;;;4.00;99.20;;;;;;5020336;28;20289;-68
2022/03/22 04:38:29;;;;;;;20.67;13.38;;;4.00;99.20;;;;;;5020153;28;20856;-68
2022/03/22 04:40:57;;;;;;;15.82;12.93;;;4.00;99.20;;;;;;5019867;28;20222;-69
2022/03/22 04:43:25;;;;;;;17.08;12.40;;;4.00;99.10;;;;;;5019983;28;20202;-68
2022/03/22 04:45:53;;;;;;;16.92;12.43;;;4.00;99.10;;;;;;5020042;28;20236;-66
2022/03/22 04:48:21;;;;;;;18.92;13.68;;;4.00;99.20;;;;;;5020762;28;20234;-68
2022/03/22 04:56:43;;;;;;;17.00;12.18;;;3.90;99.20;;;;;;5026607;28;20218;-68
2022/03/22 04:59:09;;;;;;;20.05;13.77;;;3.90;99.30;;;;;;5020415;28;20240;-69
2022/03/22 05:01:43;;;;;;;18.45;12.82;;;3.90;99.30;;;;;;5020173;28;20222;-68
2022/03/22 05:04:11;;;;;;;18.35;13.35;;;3.90;99.30;;;;;;5020210;28;20700;-67
2022/03/22 05:06:41;;;;;;;19.50;12.27;;;3.90;99.30;;;;;;5020347;28;20220;-68
2022/03/22 05:09:10;;;;;;;16.25;12.68;;;3.90;99.40;;;;;;5020062;28;20206;-69
2022/03/22 05:11:38;;;;;;;15.57;12.63;;;3.90;99.30;;;;;;5019974;28;20345;-68
2022/03/22 05:14:08;;;;;;;14.98;12.20;;;3.90;99.30;;;;;;5019962;28;20209;-68
2022/03/22 05:16:37;;;;;;;18.65;13.30;;;3.90;99.20;;;;;;5019928;28;20686;-68
2022/03/22 05:19:05;;;;;;;15.60;12.77;;;3.90;99.20;;;;;;5020529;28;20280;-67
2022/03/22 05:21:33;;;;;;;19.48;13.48;;;3.90;99.30;;;;;;5021172;28;20226;-67
2022/03/22 05:24:02;;;;;;;15.80;11.93;;;3.90;99.40;;;;;;5021055;28;20301;-68
2022/03/22 05:26:30;;;;;;;16.85;12.77;;;3.90;99.40;;;;;;5020688;28;20219;-67
2022/03/22 05:28:58;;;;;;;16.13;13.75;;;3.90;99.30;;;;;;5019723;28;20294;-68
2022/03/22 05:31:26;;;;;;;20.65;13.75;;;3.90;99.20;;;;;;5029168;28;20213;-68
2022/03/22 05:33:55;;;;;;;18.27;12.73;;;3.90;99.10;;;;;;5039053;28;20746;-67
2022/03/22 05:36:22;;;;;;;22.80;13.60;;;3.90;99.20;;;;;;5039489;28;20200;-66
2022/03/22 05:38:52;;;;;;;17.48;13.20;;;3.90;99.20;;;;;;5039200;28;20197;-71
2022/03/22 05:41:22;;;;;;;18.02;13.25;;;3.90;99.30;;;;;;5039034;28;20303;-69
2022/03/22 05:43:50;;;;;;;14.45;12.38;;;4.00;99.20;;;;;;5038494;28;20240;-69
2022/03/22 05:46:19;;;;;;;20.23;13.90;;;4.00;99.00;;;;;;5038555;28;20243;-70
2022/03/22 05:48:48;;;;;;;15.80;12.82;;;4.00;98.90;;;;;;5038639;28;20335;-70
2022/03/22 05:51:17;;;;;;;16.33;12.70;;;4.00;98.90;;;;;;5038885;28;20308;-70
2022/03/22 05:53:46;;;;;;;21.38;14.55;;;4.10;98.90;;;;;;5039437;28;20266;-70
2022/03/22 05:56:14;;;;;;;17.98;13.73;;;4.10;98.90;;;;;;5037795;28;20675;-71
2022/03/22 05:58:44;;;;;;;16.85;13.68;;;4.10;98.80;;;;;;5038847;28;20201;-71
2022/03/22 06:01:13;;;;;;;17.63;13.40;;;4.20;98.70;;;;;;5038365;28;20235;-70
2022/03/22 06:03:41;;;;;;;16.55;12.05;;;4.20;98.50;;;;;;5038725;28;20204;-71
2022/03/22 06:06:09;;;;;;;21.42;14.80;;;4.30;98.40;;;;;;5039593;28;20224;-71
2022/03/22 06:08:37;;;;;;;18.45;12.85;;;4.30;98.40;;;;;;5039974;28;20194;-71
2022/03/22 06:11:05;;;;;;;15.10;13.20;;;4.30;98.40;;;;;;5039880;28;20728;-71
2022/03/22 06:13:33;;;;;;;18.80;13.55;;;4.40;98.80;;;;;;5038961;28;20235;-72
2022/03/22 06:16:05;;;;;;;17.65;13.45;;;4.50;98.40;;;;;;5039144;28;20197;-79
2022/03/22 06:18:42;;;;;;;15.35;12.88;;;4.60;98.30;;;;;;5039145;28;20280;-72
2022/03/22 06:21:10;;;;;;;18.65;14.57;;;4.60;98.00;;;;;;5038474;28;20231;-73
2022/03/22 06:23:38;;;;;;;17.40;13.10;;;4.70;98.00;;;;;;5037954;28;20205;-74
2022/03/22 06:26:05;;;;;;;18.85;13.77;;;4.70;97.80;;;;;;5039929;28;20218;-67
2022/03/22 06:28:33;;;;;;;21.15;14.43;;;4.80;97.90;;;;;;5039456;28;20635;-72
2022/03/22 06:31:03;;;;;;;18.33;12.95;;;4.80;99.90;;;;;;5039458;28;20929;-71
2022/03/22 06:33:31;;;;;;;14.80;13.20;;;5.00;99.90;;;;;;5038738;28;20213;-71
2022/03/22 06:36:00;;;;;;;16.67;13.63;;;5.10;99.90;;;;;;5038500;28;20181;-72
2022/03/22 06:38:32;;;;;;;17.02;14.32;;;5.30;99.90;;;;;;5041112;28;20889;-71
2022/03/22 06:41:00;;;;;;;19.08;13.98;;;5.40;99.90;;;;;;5040163;28;20300;-71
2022/03/22 06:43:28;;;;;;;16.25;12.48;;;5.60;99.90;;;;;;5037302;28;20206;-72
2022/03/22 06:45:56;;;;;;;19.77;13.00;;;5.80;99.90;;;;;;5037548;28;20218;-75
2022/03/22 06:48:26;;;;;;;15.20;11.80;;;5.90;99.90;;;;;;5037109;28;20225;-70
2022/03/22 06:50:56;;;;;;;17.85;12.73;;;6.10;99.90;;;;;;5037845;28;20226;-70
2022/03/22 06:53:24;;;;;;;20.65;14.02;;;6.20;99.90;;;;;;5023051;28;20298;-68
2022/03/22 06:55:52;;;;;;;21.30;14.20;;;6.40;99.90;;;;;;5029705;28;20212;-68
2022/03/22 06:58:22;;;;;;;17.10;14.18;;;6.50;99.90;;;;;;5040075;28;20249;-71
2022/03/22 07:00:50;;;;;;;19.83;14.68;;;6.60;99.90;;;;;;5041805;28;20312;-71
2022/03/22 07:03:18;;;;;;;19.50;14.40;;;6.80;99.90;;;;;;5042029;28;20244;-70
2022/03/22 07:05:48;;;;;;;18.98;13.82;;;6.80;98.70;;;;;;5039353;28;20201;-71
2022/03/22 07:08:18;;;;;;;15.68;12.63;;;6.90;98.40;;;;;;5038321;28;20762;-70
2022/03/22 07:11:47;;;;;;;15.98;13.77;;;6.90;98.00;;;;;;5038664;28;20222;-71
2022/03/22 07:13:34;;;;;;;15.32;12.75;;;7.00;97.40;;;;;;5038596;28;20341;-71
2022/03/22 07:16:02;;;;;;;22.52;14.27;;;7.00;97.10;;;;;;5050634;28;20847;-70
2022/03/22 07:18:30;;;;;;;19.42;14.32;;;7.10;97.00;;;;;;5044406;28;20198;-72
2022/03/22 07:21:04;;;;;;;16.30;13.63;;;7.10;96.80;;;;;;5038705;28;20794;-71
2022/03/22 07:23:32;;;;;;;18.70;14.05;;;7.20;96.60;;;;;;5038688;28;20288;-71
2022/03/22 07:26:01;;;;;;;20.13;14.73;;;7.20;96.50;;;;;;5037295;28;20755;-70
2022/03/22 07:28:29;;;;;;;16.35;14.10;;;7.30;96.40;;;;;;5038194;28;20284;-70
2022/03/22 07:30:57;;;;;;;20.63;14.57;;;7.30;96.50;;;;;;5037595;28;20256;-71
2022/03/22 07:33:26;;;;;;;17.83;14.05;;;7.40;96.40;;;;;;5034435;28;20749;-70
2022/03/22 07:35:55;;;;;;;18.65;14.35;;;7.40;96.30;;;;;;5036588;28;20200;-71
2022/03/22 07:38:24;;;;;;;20.52;15.27;;;7.50;96.20;;;;;;5035489;28;20225;-71
2022/03/22 07:40:52;;;;;;;17.05;14.52;;;7.50;96.20;;;;;;5037217;28;20220;-71
2022/03/22 07:43:20;;;;;;;18.70;15.40;;;7.60;96.00;;;;;;5038291;28;20197;-71
2022/03/22 07:45:47;;;;;;;25.00;16.33;;;7.60;95.70;;;;;;5041279;28;20277;-71
2022/03/22 07:48:16;;;;;;;17.75;14.40;;;7.70;95.80;;;;;;5032904;28;20260;-71
2022/03/22 07:53:31;;;;;;;17.65;15.73;;;7.80;95.60;;;;;;5039722;28;20197;-71
2022/03/22 07:55:58;;;;;;;18.92;15.85;;;7.80;96.20;;;;;;5035541;28;20206;-70
2022/03/22 07:58:26;;;;;;;19.13;15.43;;;7.80;96.10;;;;;;5026761;28;20214;-71
2022/03/22 08:00:55;;;;;;;20.63;14.38;;;7.90;96.00;;;;;;5035848;28;20317;-71
2022/03/22 08:03:23;;;;;;;17.65;14.02;;;7.90;95.90;;;;;;5022591;28;20198;-70
2022/03/22 08:05:51;;;;;;;18.08;14.25;;;8.00;95.90;;;;;;5040010;28;20240;-70
2022/03/22 08:08:23;;;;;;;16.63;14.90;;;8.00;95.40;;;;;;5039992;28;20240;-71
2022/03/22 08:11:01;;;;;;;21.25;16.48;;;8.10;95.80;;;;;;5020518;28;20411;-71
2022/03/22 08:13:30;;;;;;;21.67;16.48;;;8.20;95.80;;;;;;5021160;28;20363;-71
2022/03/22 08:15:58;;;;;;;19.60;15.18;;;8.20;95.40;;;;;;5026436;28;20297;-70
2022/03/22 08:18:26;;;;;;;19.13;17.05;;;8.30;95.00;;;;;;5031788;28;20853;-70
2022/03/22 08:20:54;;;;;;;20.48;17.10;;;8.30;95.20;;;;;;5027238;28;20218;-70
2022/03/22 08:23:22;;;;;;;19.30;16.15;;;8.40;95.10;;;;;;5030669;28;20233;-72
2022/03/22 08:25:51;;;;;;;23.33;15.50;;;8.50;94.90;;;;;;5035956;28;20841;-71
2022/03/22 08:28:21;;;;;;;18.70;16.45;;;8.60;94.90;;;;;;5037469;28;20700;-69
2022/03/22 08:30:49;;;;;;;17.10;14.18;;;8.80;95.10;;;;;;5038146;28;20213;-69
2022/03/22 08:33:17;;;;;;;19.50;16.10;;;8.90;95.00;;;;;;5039965;28;20201;-71
2022/03/22 08:35:49;;;;;;;21.23;16.48;;;8.90;94.90;;;;;;5037266;28;20202;-71
2022/03/22 08:38:20;;;;;;;18.80;15.30;;;9.00;95.00;;;;;;5040351;28;20189;-71
2022/03/22 08:40:49;;;;;;;19.58;16.40;;;9.20;94.70;;;;;;5037805;28;20210;-71
2022/03/22 08:43:19;;;;;;;19.45;16.50;;;9.30;94.30;;;;;;5039383;28;20285;-71
2022/03/22 08:45:49;;;;;;;23.77;17.30;;;9.30;94.50;;;;;;5039858;28;20225;-71
2022/03/22 08:48:17;;;;;;;24.27;16.48;;;9.40;94.40;;;;;;5038794;28;20240;-72
2022/03/22 08:50:47;;;;;;;18.63;16.63;;;9.50;94.00;;;;;;5039576;28;20708;-72
2022/03/22 08:53:16;;;;;;;18.95;15.80;;;9.60;94.10;;;;;;5037615;28;20201;-71
2022/03/22 08:55:50;;;;;;;19.42;15.77;;;9.60;93.90;;;;;;5036798;28;20201;-71
2022/03/22 08:58:18;;;;;;;27.60;18.17;;;9.80;94.00;;;;;;5039139;28;20280;-71
2022/03/22 09:00:48;;;;;;;17.55;15.55;;;9.90;93.90;;;;;;5036622;28;20771;-73
2022/03/22 09:03:19;;;;;;;19.92;15.60;;;10.00;93.50;;;;;;5040101;28;20201;-72
2022/03/22 09:08:33;;;;;;;22.77;16.73;;;10.20;93.20;;;;;;5037997;28;20310;-72
2022/03/22 09:11:01;;;;;;;19.20;15.57;;;10.30;93.20;;;;;;5038920;28;20611;-71
2022/03/22 09:13:35;;;;;;;18.48;16.00;;;10.30;93.10;;;;;;5040660;28;20967;-71
2022/03/22 09:16:05;;;;;;;19.10;16.35;;;10.40;93.10;;;;;;5039623;28;20221;-71
2022/03/22 09:18:34;;;;;;;17.35;15.27;;;10.60;92.80;;;;;;5040051;28;20775;-71
2022/03/22 09:21:02;;;;;;;19.67;16.10;;;10.70;92.90;;;;;;5039149;28;20228;-71
2022/03/22 09:23:30;;;;;;;18.17;14.98;;;10.80;92.90;;;;;;5049530;22;20621;-88
2022/03/22 09:25:58;;;;;;;17.27;15.48;;;10.90;92.90;;;;;;5040214;28;20218;-86
2022/03/22 09:28:25;;;;;;;19.50;15.77;;;11.00;92.90;;;;;;5031722;28;20229;-86
2022/03/22 09:30:54;;;;;;;24.80;17.87;;;11.00;92.50;;;;;;5032034;28;20924;-88
2022/03/22 09:33:23;;;;;;;17.03;14.37;;;11.10;92.40;;;;;;5034501;28;20463;-87
2022/03/22 09:35:53;;;;;;;18.60;16.60;;;11.20;92.20;;;;;;5063564;28;20527;-88
2022/03/22 09:38:21;;;;;;;18.20;13.87;;;11.30;92.30;;;;;;5049448;28;20441;-87
2022/03/22 09:40:50;;;;;;;20.63;16.98;;;11.40;92.50;;;;;;5048644;28;20512;-86
2022/03/22 09:43:22;;;;;;;19.40;15.27;;;11.40;92.10;;;;;;5047972;28;20190;-86
2022/03/22 09:45:55;;;;;;;17.00;15.20;;;11.40;91.70;;;;;;5048985;28;20651;-88
2022/03/22 09:48:37;;;;;;;18.80;15.73;;;11.50;91.70;;;;;;5052483;28;20895;-88
2022/03/22 09:53:55;;;;;;;20.53;16.50;;;11.80;91.90;;;;;;5052901;28;20456;-86
2022/03/22 09:56:32;;;;;;;20.33;16.87;;;11.90;91.60;;;;;;5055429;28;20470;-87
2022/03/22 09:59:07;;;;;;;18.97;16.53;;;12.00;91.50;;;;;;5054869;28;20574;-87
2022/03/22 10:01:36;;;;;;;18.20;15.07;;;12.10;91.50;;;;;;5054005;28;20914;-86
2022/03/22 10:04:12;;;;;;;19.50;16.03;;;12.20;91.10;;;;;;5054176;28;20646;-88
2022/03/22 10:06:54;;;;;;;18.57;15.77;;;12.30;91.10;;;;;;5052302;28;20475;-87
2022/03/22 10:09:30;;;;;;;21.77;15.80;;;12.30;91.00;;;;;;5045961;28;20869;-87
2022/03/22 10:11:59;;;;;;;19.67;16.83;;;12.50;91.00;;;;;;5050293;28;20452;-87
2022/03/22 10:14:38;;;;;;;22.37;15.87;;;12.60;90.80;;;;;;5052111;28;21447;-86
2022/03/22 10:17:13;;;;;;;19.07;14.83;;;12.70;90.80;;;;;;5059619;28;20677;-85
2022/03/22 10:19:50;;;;;;;17.93;15.53;;;12.80;90.60;;;;;;5058611;28;20618;-87
2022/03/22 10:22:24;;;;;;;18.40;15.70;;;12.90;90.70;;;;;;5043135;28;21114;-89
2022/03/22 10:24:55;;;;;;;22.63;15.97;;;13.00;90.60;;;;;;5050984;28;20523;-85
2022/03/22 10:27:27;;;;;;;18.90;15.63;;;13.10;90.50;;;;;;5051442;28;20488;-85
2022/03/22 10:30:17;;;;;;;19.50;16.10;;;13.20;90.50;;;;;;5049551;28;20965;-85
2022/03/22 10:32:51;;;;;;;18.43;16.27;;;13.30;90.50;;;;;;5048028;28;20472;-83
2022/03/22 10:35:22;;;;;;;18.63;15.80;;;13.40;90.40;;;;;;5050820;28;20489;-85
2022/03/22 10:37:54;;;;;;;16.70;14.93;;;13.50;90.40;;;;;;5052714;28;20444;-84
2022/03/22 10:40:27;;;;;;;19.17;17.27;;;13.60;90.00;;;;;;5051101;28;21112;-86
2022/03/22 10:42:58;;;;;;;22.53;16.60;;;13.70;90.00;;;;;;5038700;28;20544;-85
2022/03/22 10:45:27;;;;;;;16.53;14.83;;;13.80;89.70;;;;;;5044358;28;20564;-88
2022/03/22 10:47:56;;;;;;;18.30;16.23;;;13.90;89.20;;;;;;5044424;28;20704;-87
2022/03/22 10:50:25;;;;;;;18.80;16.50;;;14.00;89.00;;;;;;5047490;28;20535;-86
2022/03/22 10:52:55;;;;;;;17.57;15.87;;;14.00;89.30;;;;;;5041515;28;20444;-86
2022/03/22 10:55:25;;;;;;;19.47;16.27;;;14.10;88.80;;;;;;5046538;28;20471;-86
2022/03/22 10:57:55;;;;;;;17.83;15.67;;;14.20;89.00;;;;;;5045484;28;20446;-82
2022/03/22 11:00:23;;;;;;;18.83;15.40;;;14.20;88.90;;;;;;5047124;28;20544;-85
2022/03/22 11:02:53;;;;;;;20.07;16.70;;;14.30;88.90;;;;;;5048464;28;20439;-87
2022/03/22 11:05:23;;;;;;;20.33;16.90;;;14.50;88.50;;;;;;5047138;28;20460;-86
2022/03/22 11:07:55;;;;;;;18.50;15.37;;;14.50;88.40;;;;;;5046371;28;20495;-84
2022/03/22 11:10:29;;;;;;;20.73;16.20;;;14.60;88.90;;;;;;5047296;28;20459;-87
2022/03/22 11:12:58;;;;;;;19.90;17.70;;;14.70;88.60;;;;;;5046680;28;20748;-89
2022/03/22 11:15:28;;;;;;;17.50;15.63;;;14.80;89.10;;;;;;5048761;28;20480;-86
2022/03/22 11:17:57;;;;;;;20.33;16.60;;;14.90;89.10;;;;;;5045641;28;20578;-88
2022/03/22 11:20:27;;;;;;;23.90;18.00;;;15.00;88.80;;;;;;5058809;28;20498;-85
2022/03/22 11:23:00;;;;;;;19.83;16.67;;;15.10;89.00;;;;;;5060022;28;21071;-86
2022/03/22 11:25:34;;;;;;;21.97;18.10;;;15.20;87.70;;;;;;5053204;28;20416;-87
2022/03/22 11:28:06;;;;;;;18.33;15.87;;;15.20;87.70;;;;;;5050490;28;20484;-88
2022/03/22 11:30:36;;;;;;;21.00;17.57;;;15.20;87.00;;;;;;5051764;28;20475;-86
2022/03/22 11:35:58;;;;;;;17.80;15.90;;;15.30;87.80;;;;;;5010995;28;20485;-83
2022/03/22 11:38:44;;;;;;;18.07;15.73;;;15.50;87.90;;;;;;5028845;28;20502;-84
2022/03/22 11:44:10;;;;;;;20.23;18.10;;;15.60;87.30;;;;;;5049249;28;20476;-84
2022/03/22 11:46:38;;;;;;;18.33;16.23;;;15.60;87.20;;;;;;5047750;28;20538;-84
2022/03/22 11:49:21;;;;;;;22.00;16.37;;;15.60;87.00;;;;;;5049341;28;20649;-86
2022/03/22 11:51:55;;;;;;;19.97;16.63;;;15.70;85.50;;;;;;5048336;28;20474;-84
2022/03/22 11:54:27;;;;;;;17.30;15.50;;;15.70;85.30;;;;;;5049287;28;20511;-84
2022/03/22 11:56:59;;;;;;;17.47;15.43;;;15.70;85.50;;;;;;5048319;28;20498;-84
2022/03/22 11:59:39;;;;;;;20.57;16.30;;;15.80;85.80;;;;;;5050984;28;20417;-84
2022/03/22 12:02:17;;;;;;;18.37;15.90;;;15.90;85.00;;;;;;5051753;28;20475;-85
2022/03/22 12:04:51;;;;;;;17.90;15.97;;;15.90;85.70;;;;;;5050054;28;20505;-85
2022/03/22 12:11:28;;;;;;;17.27;13.43;;;16.10;85.90;;;;;;4990249;28;20453;-84
2022/03/22 12:16:51;;;;;;;19.20;15.43;;;16.30;85.60;;;;;;4984215;28;20455;-84
2022/03/22 12:19:31;;;;;;;15.00;13.43;;;16.30;85.40;;;;;;4988471;28;20501;-86
2022/03/22 12:22:10;;;;;;;19.03;15.23;;;16.40;85.90;;;;;;4994195;28;20439;-84
2022/03/22 12:24:46;;;;;;;17.43;15.00;;;16.40;85.20;;;;;;4990983;28;20481;-85
2022/03/22 12:27:16;;;;;;;16.93;15.17;;;16.40;85.40;;;;;;4991890;28;20494;-83
2022/03/22 12:29:47;;;;;;;16.17;14.47;;;16.50;84.90;;;;;;4993256;28;20486;-85
2022/03/22 12:32:45;;;;;;;17.43;15.43;;;16.50;85.20;;;;;;4994645;28;20467;-85
2022/03/22 12:35:16;;;;;;;17.40;14.60;;;16.60;85.10;;;;;;5004937;28;20503;-85
2022/03/22 12:37:50;;;;;;;18.70;16.00;;;16.60;84.90;;;;;;4995364;28;20470;-84
2022/03/22 12:40:22;;;;;;;18.50;16.60;;;16.60;84.20;;;;;;4992136;28;21063;-85
2022/03/22 12:42:58;;;;;;;17.60;15.17;;;16.60;84.10;;;;;;4991439;28;20845;-84
2022/03/22 12:46:02;;;;;;;16.00;14.50;;;16.60;84.10;;;;;;4990099;28;20466;-85
2022/03/22 12:48:38;;;;;;;15.80;14.10;;;16.60;84.40;;;;;;4991124;28;20545;-85
2022/03/22 12:51:10;;;;;;;15.93;14.20;;;16.60;84.80;;;;;;4973460;28;21057;-83
2022/03/22 12:53:51;;;;;;;16.70;13.63;;;16.60;84.60;;;;;;4982649;28;20451;-85
2022/03/22 12:56:25;;;;;;;15.67;13.87;;;16.70;84.20;;;;;;4972208;28;20428;-85
2022/03/22 12:59:26;;;;;;;16.37;14.67;;;16.70;84.20;;;;;;4985014;28;20451;-85
2022/03/22 13:02:06;;;;;;;17.20;15.40;;;16.90;84.20;;;;;;4991082;28;20482;-86
2022/03/22 13:04:46;;;;;;;15.30;13.80;;;16.90;83.60;;;;;;4993314;28;20416;-86
2022/03/22 13:07:28;;;;;;;15.47;13.87;;;16.90;83.30;;;;;;4990754;28;20958;-84
2022/03/22 13:12:47;;;;;;;16.87;14.80;;;16.90;82.70;;;;;;4973595;28;20495;-84
2022/03/22 13:15:21;;;;;;;15.47;13.90;;;17.00;82.90;;;;;;4970871;28;20558;-85
2022/03/22 13:17:53;;;;;;;16.60;14.77;;;17.00;82.90;;;;;;4971390;28;20448;-87
2022/03/22 13:20:27;;;;;;;14.27;12.93;;;17.10;82.20;;;;;;4985051;28;20961;-84
2022/03/22 13:22:59;;;;;;;14.90;13.40;;;17.10;81.50;;;;;;4991881;28;20440;-85
2022/03/22 13:25:34;;;;;;;13.50;11.60;;;17.10;81.90;;;;;;4992677;28;20474;-84
2022/03/22 13:28:11;;;;;;;15.20;13.50;;;17.10;80.00;;;;;;4995165;28;20450;-84
2022/03/22 13:30:44;;;;;;;13.20;11.47;;;17.10;78.50;;;;;;4996912;28;20483;-84